Time;durP1;ratioP1;P1;durP2;ratioP2;P2;SDS_P1;SDS_P2;PMS_P1;PMS_P2;Temp;Humidity;BMP_temperature;BMP_pressure;BME280_temperature;BME280_humidity;BME280_pressure;Samples;Min_cycle;Max_cycle;Signal;HPM_P1;HPM_P2
2021/05/01 00:01:05;;;;;;;3.92;2.42;;;18.20;78.80;;;;;;5102518;28;20661;-76
2021/05/01 00:03:31;;;;;;;2.90;2.65;;;18.20;78.70;;;;;;5086287;28;20749;-77
2021/05/01 00:05:57;;;;;;;2.65;2.47;;;18.20;78.70;;;;;;5102481;28;20195;-77
2021/05/01 00:08:23;;;;;;;2.35;2.25;;;18.20;78.50;;;;;;5099563;28;20174;-76
2021/05/01 00:10:49;;;;;;;2.75;2.55;;;18.10;78.20;;;;;;5103541;28;20173;-76
2021/05/01 00:13:15;;;;;;;2.42;2.22;;;18.10;78.50;;;;;;5103800;28;20204;-76
2021/05/01 00:15:41;;;;;;;5.03;2.15;;;18.10;79.00;;;;;;5102381;28;20182;-76
2021/05/01 00:18:07;;;;;;;6.82;3.05;;;18.10;79.10;;;;;;5102475;28;20186;-76
2021/05/01 00:20:32;;;;;;;4.93;2.42;;;18.10;78.80;;;;;;5106188;28;20228;-76
2021/05/01 00:22:58;;;;;;;4.15;2.33;;;18.10;80.40;;;;;;5104142;28;20660;-75
2021/05/01 00:25:24;;;;;;;2.70;2.50;;;18.10;80.80;;;;;;5102235;28;20209;-77
2021/05/01 00:27:50;;;;;;;3.67;2.85;;;18.00;80.00;;;;;;5102768;28;20324;-77
2021/05/01 00:30:16;;;;;;;2.53;2.42;;;18.00;79.40;;;;;;5104083;28;20177;-76
2021/05/01 00:32:42;;;;;;;8.10;2.50;;;18.00;80.30;;;;;;5101653;28;20190;-76
2021/05/01 00:35:08;;;;;;;5.78;2.42;;;17.90;80.30;;;;;;5101829;28;20233;-75
2021/05/01 00:37:34;;;;;;;6.90;2.50;;;17.80;81.00;;;;;;5096201;28;20289;-76
2021/05/01 00:40:00;;;;;;;4.07;2.85;;;17.80;81.40;;;;;;5100733;28;20269;-77
2021/05/01 00:42:25;;;;;;;2.58;2.38;;;17.70;80.60;;;;;;5103726;28;20240;-77
2021/05/01 00:44:51;;;;;;;3.45;3.25;;;17.70;80.80;;;;;;5101401;28;20192;-77
2021/05/01 00:47:17;;;;;;;2.45;2.22;;;17.70;80.80;;;;;;5100895;28;20634;-76
2021/05/01 00:49:42;;;;;;;4.18;2.65;;;17.70;80.50;;;;;;5105715;28;20177;-76
2021/05/01 00:52:08;;;;;;;4.32;3.05;;;17.70;80.70;;;;;;5103818;28;20264;-76
2021/05/01 00:54:34;;;;;;;6.32;3.30;;;17.70;80.60;;;;;;5098531;28;20247;-76
2021/05/01 00:56:59;;;;;;;4.70;2.78;;;17.80;80.40;;;;;;5099361;28;20751;-76
2021/05/01 00:59:25;;;;;;;4.00;2.55;;;17.70;80.70;;;;;;5103599;28;20203;-76
2021/05/01 01:01:54;;;;;;;3.45;2.88;;;17.70;80.50;;;;;;5101768;28;20607;-77
2021/05/01 01:04:19;;;;;;;3.97;3.13;;;17.80;80.20;;;;;;5102208;28;20259;-76
2021/05/01 01:06:47;;;;;;;4.32;2.50;;;17.70;80.10;;;;;;5101787;28;20205;-76
2021/05/01 01:09:13;;;;;;;4.53;3.00;;;17.80;80.20;;;;;;5100037;28;20625;-76
2021/05/01 01:11:40;;;;;;;6.35;2.80;;;17.80;79.90;;;;;;5098771;28;20177;-76
2021/05/01 01:14:08;;;;;;;2.92;2.60;;;17.80;79.80;;;;;;5102750;28;20556;-76
2021/05/01 01:16:34;;;;;;;2.60;2.47;;;17.80;80.00;;;;;;5100540;28;20230;-76
2021/05/01 01:19:01;;;;;;;2.83;2.72;;;17.80;80.10;;;;;;5097714;28;20206;-75
2021/05/01 01:21:27;;;;;;;5.25;2.70;;;17.80;80.20;;;;;;5106253;28;20182;-76
2021/05/01 01:23:54;;;;;;;5.10;2.90;;;17.80;80.40;;;;;;5102457;28;20209;-76
2021/05/01 01:26:20;;;;;;;7.40;2.53;;;17.80;80.40;;;;;;5103732;28;20304;-76
2021/05/01 01:28:47;;;;;;;5.05;2.70;;;17.80;80.50;;;;;;5099614;28;20188;-76
2021/05/01 01:31:13;;;;;;;3.42;2.95;;;17.80;80.30;;;;;;5099517;28;20186;-76
2021/05/01 01:33:39;;;;;;;4.05;2.70;;;17.70;81.70;;;;;;5101256;28;20193;-76
2021/05/01 01:36:06;;;;;;;4.28;3.05;;;17.70;80.80;;;;;;5103292;28;20177;-77
2021/05/01 01:38:32;;;;;;;4.38;2.83;;;17.60;81.00;;;;;;5096891;28;20174;-76
2021/05/01 01:40:58;;;;;;;6.68;2.70;;;17.50;81.20;;;;;;5098570;28;20186;-77
2021/05/01 01:43:27;;;;;;;5.85;2.45;;;17.50;81.20;;;;;;5098043;28;20183;-77
2021/05/01 01:45:53;;;;;;;6.70;2.47;;;17.50;81.30;;;;;;5102878;28;20626;-76
2021/05/01 01:48:19;;;;;;;2.97;2.45;;;17.40;82.50;;;;;;5097089;28;20842;-76
2021/05/01 01:50:46;;;;;;;5.60;2.65;;;17.40;81.20;;;;;;5103191;28;20264;-76
2021/05/01 01:53:12;;;;;;;2.30;2.17;;;17.40;80.90;;;;;;5102404;28;20236;-76
2021/05/01 01:55:38;;;;;;;2.95;2.53;;;17.30;82.10;;;;;;5099601;28;20251;-76
2021/05/01 01:58:04;;;;;;;2.80;2.40;;;17.30;81.10;;;;;;5098215;28;20657;-75
2021/05/01 02:00:31;;;;;;;2.92;2.60;;;17.30;81.10;;;;;;5097193;28;20189;-76
2021/05/01 02:02:57;;;;;;;3.60;2.88;;;17.20;81.20;;;;;;5098260;28;20264;-75
2021/05/01 02:05:23;;;;;;;9.38;3.00;;;17.20;81.80;;;;;;5096372;28;20181;-76
2021/05/01 02:07:49;;;;;;;5.95;2.33;;;17.20;81.90;;;;;;5098974;28;20343;-75
2021/05/01 02:10:16;;;;;;;7.90;2.83;;;17.20;81.80;;;;;;5099222;28;20194;-75
2021/05/01 02:12:43;;;;;;;3.60;2.22;;;17.10;81.50;;;;;;5100787;28;20200;-75
2021/05/01 02:15:15;;;;;;;3.63;2.60;;;17.10;81.90;;;;;;5103840;28;20201;-76
2021/05/01 02:20:31;;;;;;;6.35;3.13;;;17.10;82.40;;;;;;5100698;28;20180;-75
2021/05/01 02:22:57;;;;;;;2.72;2.53;;;17.00;81.80;;;;;;5100782;28;20185;-75
2021/05/01 02:25:24;;;;;;;3.67;2.15;;;17.00;82.20;;;;;;5102026;28;20193;-75
2021/05/01 02:27:50;;;;;;;6.18;2.60;;;17.00;82.00;;;;;;5100471;28;20205;-75
2021/05/01 02:30:19;;;;;;;5.15;2.20;;;17.00;82.10;;;;;;5102534;28;20197;-75
2021/05/01 02:32:45;;;;;;;2.10;2.00;;;16.90;82.00;;;;;;5100215;28;20667;-75
2021/05/01 02:35:12;;;;;;;2.95;2.33;;;17.00;82.00;;;;;;5099915;28;20189;-75
2021/05/01 02:37:39;;;;;;;4.28;2.05;;;16.90;81.90;;;;;;5095346;28;20188;-75
2021/05/01 02:40:07;;;;;;;2.50;2.17;;;16.90;81.60;;;;;;5103006;28;20258;-77
2021/05/01 02:42:33;;;;;;;4.63;2.38;;;16.90;81.80;;;;;;5098229;28;20207;-77
2021/05/01 02:44:58;;;;;;;6.38;2.40;;;16.90;81.70;;;;;;5102079;28;20805;-77
2021/05/01 02:47:24;;;;;;;2.72;2.38;;;16.90;81.70;;;;;;5102113;28;20213;-75
2021/05/01 02:49:50;;;;;;;2.30;2.10;;;16.90;81.80;;;;;;5101402;28;20177;-76
2021/05/01 02:52:16;;;;;;;5.43;2.65;;;16.90;82.00;;;;;;5099413;28;20186;-76
2021/05/01 02:54:41;;;;;;;2.72;2.50;;;16.90;81.90;;;;;;5099418;28;20188;-76
2021/05/01 02:57:07;;;;;;;2.65;2.47;;;16.90;82.40;;;;;;5100731;28;20193;-76
2021/05/01 02:59:33;;;;;;;5.07;2.33;;;16.90;82.40;;;;;;5102845;28;20464;-77
2021/05/01 03:01:58;;;;;;;3.85;2.30;;;16.80;82.60;;;;;;5097139;28;20638;-76
2021/05/01 03:04:24;;;;;;;2.90;2.65;;;16.80;82.70;;;;;;5099933;28;20182;-76
2021/05/01 03:06:50;;;;;;;6.88;1.80;;;16.80;83.10;;;;;;5102931;28;20237;-76
2021/05/01 03:09:16;;;;;;;2.72;2.40;;;16.70;83.00;;;;;;5102630;28;20276;-76
2021/05/01 03:11:41;;;;;;;3.00;2.15;;;16.70;83.30;;;;;;5096988;28;20193;-77
2021/05/01 03:14:08;;;;;;;3.75;2.25;;;16.70;83.10;;;;;;5099740;28;20200;-76
2021/05/01 03:16:34;;;;;;;4.05;2.33;;;16.60;83.00;;;;;;5105223;28;20185;-76
2021/05/01 03:18:59;;;;;;;6.93;2.45;;;16.60;82.90;;;;;;5088533;28;20181;-76
2021/05/01 03:21:25;;;;;;;1.88;1.70;;;16.60;83.10;;;;;;5103789;28;20268;-77
2021/05/01 03:23:52;;;;;;;5.15;2.25;;;16.50;83.10;;;;;;5103548;28;21882;-77
2021/05/01 03:26:20;;;;;;;5.35;2.42;;;16.50;83.20;;;;;;5106536;28;20186;-75
2021/05/01 03:28:45;;;;;;;3.05;2.55;;;16.50;83.10;;;;;;5105759;28;20178;-75
2021/05/01 03:31:11;;;;;;;5.15;2.45;;;16.50;83.10;;;;;;5101339;28;20178;-75
2021/05/01 03:33:37;;;;;;;2.03;2.03;;;16.50;83.10;;;;;;5103177;28;20190;-74
2021/05/01 03:36:04;;;;;;;2.45;2.25;;;16.50;83.00;;;;;;5104281;28;20177;-72
2021/05/01 03:38:31;;;;;;;4.10;2.22;;;16.50;82.90;;;;;;5104134;28;20174;-75
2021/05/01 03:40:57;;;;;;;2.28;2.17;;;16.50;83.00;;;;;;5106500;28;20177;-73
2021/05/01 03:43:23;;;;;;;4.85;2.28;;;16.50;83.00;;;;;;5106365;28;20571;-75
2021/05/01 03:45:48;;;;;;;4.95;2.65;;;16.50;83.00;;;;;;5097002;28;20243;-75
2021/05/01 03:48:14;;;;;;;2.45;2.20;;;16.50;83.10;;;;;;5103136;28;20213;-74
2021/05/01 03:50:40;;;;;;;2.15;2.05;;;16.50;83.10;;;;;;5105769;28;20178;-74
2021/05/01 03:53:06;;;;;;;2.28;2.10;;;16.50;83.30;;;;;;5099276;28;20242;-73
2021/05/01 03:55:32;;;;;;;4.72;2.00;;;16.50;83.50;;;;;;5100329;28;20638;-75
2021/05/01 03:57:58;;;;;;;3.33;2.50;;;16.50;83.60;;;;;;5105828;28;20181;-75
2021/05/01 04:00:25;;;;;;;3.80;2.30;;;16.50;83.30;;;;;;5107503;28;20178;-74
2021/05/01 04:02:51;;;;;;;7.28;2.47;;;16.50;83.40;;;;;;5104473;28;20747;-74
2021/05/01 04:05:17;;;;;;;2.10;2.00;;;16.50;83.50;;;;;;5105957;28;20177;-74
2021/05/01 04:07:43;;;;;;;11.32;3.33;;;16.50;83.50;;;;;;5104657;28;20267;-74
2021/05/01 04:10:10;;;;;;;4.60;2.50;;;16.50;84.10;;;;;;5103902;28;20273;-74
2021/05/01 04:12:35;;;;;;;5.63;2.33;;;16.50;83.90;;;;;;5101716;28;20712;-74
2021/05/01 04:15:02;;;;;;;6.40;2.55;;;16.50;83.90;;;;;;5103626;28;20181;-74
2021/05/01 04:17:27;;;;;;;2.65;2.45;;;16.50;84.00;;;;;;5100823;28;20675;-74
2021/05/01 04:19:53;;;;;;;3.92;2.17;;;16.50;83.90;;;;;;5100388;28;20186;-74
2021/05/01 04:22:38;;;;;;;5.43;2.22;;;16.50;83.80;;;;;;5101900;28;20185;-74
2021/05/01 04:25:05;;;;;;;2.95;1.70;;;16.50;83.80;;;;;;5101839;28;20208;-74
2021/05/01 04:27:30;;;;;;;2.13;1.95;;;16.50;83.80;;;;;;5085000;28;21014;-74
2021/05/01 04:29:57;;;;;;;2.40;2.30;;;16.60;83.80;;;;;;5105098;28;20213;-74
2021/05/01 04:32:22;;;;;;;3.72;2.58;;;16.60;83.70;;;;;;5084170;28;20272;-74
2021/05/01 04:34:48;;;;;;;2.63;2.30;;;16.60;83.30;;;;;;5104589;28;20265;-74
2021/05/01 04:37:14;;;;;;;1.88;1.85;;;16.70;83.10;;;;;;5100847;28;20186;-74
2021/05/01 04:39:40;;;;;;;4.88;2.75;;;16.80;83.10;;;;;;5104644;28;20252;-74
2021/05/01 04:42:07;;;;;;;6.78;2.22;;;16.90;82.80;;;;;;5103778;28;20261;-74
2021/05/01 04:44:33;;;;;;;3.28;2.58;;;17.00;82.50;;;;;;5103316;28;20182;-74
2021/05/01 04:46:59;;;;;;;2.00;1.90;;;17.10;82.40;;;;;;5104110;28;20225;-74
2021/05/01 04:49:24;;;;;;;5.55;2.70;;;17.20;82.90;;;;;;5104723;28;20574;-73
2021/05/01 04:51:50;;;;;;;4.82;2.55;;;17.20;82.40;;;;;;5101675;28;20599;-74
2021/05/01 04:54:16;;;;;;;6.63;2.40;;;17.30;82.10;;;;;;5105852;28;20189;-75
2021/05/01 04:56:42;;;;;;;2.50;2.30;;;17.40;82.10;;;;;;5100231;28;20177;-74
2021/05/01 04:59:07;;;;;;;6.57;3.15;;;17.50;82.10;;;;;;5099566;28;20190;-72
2021/05/01 05:01:34;;;;;;;3.08;2.42;;;17.60;81.80;;;;;;5101702;28;20178;-74
2021/05/01 05:04:01;;;;;;;3.40;3.10;;;17.70;81.60;;;;;;5088496;28;20197;-73
2021/05/01 05:06:27;;;;;;;2.80;2.13;;;17.70;81.50;;;;;;5099128;28;20192;-73
2021/05/01 05:08:52;;;;;;;3.70;2.50;;;17.80;82.50;;;;;;5104521;28;20174;-74
2021/05/01 05:11:18;;;;;;;6.43;2.80;;;17.90;81.60;;;;;;5100110;28;20177;-74
2021/05/01 05:13:44;;;;;;;3.78;2.63;;;17.90;81.20;;;;;;5104928;28;20220;-74
2021/05/01 05:16:09;;;;;;;3.63;2.80;;;17.90;81.00;;;;;;5103485;28;20178;-74
2021/05/01 05:18:35;;;;;;;5.32;2.58;;;18.00;80.90;;;;;;5103349;28;20182;-74
2021/05/01 05:21:01;;;;;;;2.50;2.30;;;18.00;80.80;;;;;;5099756;28;20188;-73
2021/05/01 05:23:27;;;;;;;6.05;2.80;;;18.00;80.80;;;;;;5102299;28;20174;-73
2021/05/01 05:25:53;;;;;;;8.07;3.08;;;18.10;80.70;;;;;;5101603;28;20181;-73
2021/05/01 05:28:19;;;;;;;3.05;2.50;;;18.20;80.80;;;;;;5083812;28;20861;-73
2021/05/01 05:30:45;;;;;;;5.57;2.50;;;18.20;80.60;;;;;;5100708;28;20183;-73
2021/05/01 05:33:11;;;;;;;9.00;3.03;;;18.40;80.60;;;;;;5099149;28;20229;-73
2021/05/01 05:35:36;;;;;;;5.47;2.53;;;18.50;80.70;;;;;;5099131;28;20182;-73
2021/05/01 05:38:03;;;;;;;3.22;2.75;;;18.60;80.40;;;;;;5100742;28;20347;-73
2021/05/01 05:40:31;;;;;;;4.22;2.83;;;18.80;79.70;;;;;;5101213;28;20300;-74
2021/05/01 05:42:57;;;;;;;4.32;3.05;;;18.90;79.40;;;;;;5084716;28;20662;-74
2021/05/01 05:45:25;;;;;;;2.78;2.58;;;19.00;79.20;;;;;;5098310;28;20177;-74
2021/05/01 05:47:52;;;;;;;2.58;2.28;;;19.10;79.20;;;;;;5102087;28;20860;-74
2021/05/01 05:50:18;;;;;;;3.60;2.55;;;19.10;78.80;;;;;;5100950;28;20268;-74
2021/05/01 05:52:44;;;;;;;4.38;2.13;;;19.20;77.70;;;;;;5099169;28;20583;-75
2021/05/01 05:55:11;;;;;;;2.85;2.63;;;19.20;77.90;;;;;;5091767;28;20174;-75
2021/05/01 05:57:38;;;;;;;4.13;2.60;;;19.20;77.90;;;;;;5104011;28;20209;-75
2021/05/01 06:00:05;;;;;;;4.43;3.35;;;19.30;77.70;;;;;;5096124;28;21353;-75
2021/05/01 06:02:33;;;;;;;3.15;2.45;;;19.40;77.60;;;;;;5099650;28;20178;-75
2021/05/01 06:05:16;;;;;;;3.72;3.10;;;19.40;77.60;;;;;;5099620;28;21604;-74
2021/05/01 06:07:47;;;;;;;3.03;2.70;;;19.60;77.00;;;;;;5096217;28;20245;-74
2021/05/01 06:10:13;;;;;;;2.53;2.42;;;19.70;76.40;;;;;;5098263;28;20209;-74
2021/05/01 06:12:40;;;;;;;12.50;2.25;;;19.70;76.30;;;;;;5099975;28;20911;-74
2021/05/01 06:15:13;;;;;;;6.80;2.42;;;19.80;76.20;;;;;;5101310;28;20671;-73
2021/05/01 06:17:40;;;;;;;8.15;2.65;;;19.90;75.60;;;;;;5101484;28;20179;-73
2021/05/01 06:20:09;;;;;;;5.45;2.03;;;20.00;76.10;;;;;;5100713;28;20245;-74
2021/05/01 06:22:35;;;;;;;6.50;2.08;;;20.10;75.80;;;;;;5077385;28;20637;-73
2021/05/01 06:25:02;;;;;;;4.15;2.33;;;20.10;75.90;;;;;;5102369;28;20185;-75
2021/05/01 06:27:28;;;;;;;3.47;2.30;;;20.20;75.90;;;;;;5100216;28;20236;-73
2021/05/01 06:29:54;;;;;;;5.57;2.53;;;20.30;75.00;;;;;;5098402;28;20201;-75
2021/05/01 06:32:21;;;;;;;5.03;2.53;;;20.40;75.20;;;;;;5107193;28;20189;-75
2021/05/01 06:34:54;;;;;;;2.13;2.08;;;20.50;74.70;;;;;;5111001;28;20897;-76
2021/05/01 06:37:22;;;;;;;2.97;2.00;;;20.60;73.80;;;;;;5103180;28;20190;-75
2021/05/01 06:39:50;;;;;;;2.47;2.28;;;20.70;74.00;;;;;;5102874;28;20170;-76
2021/05/01 06:42:29;;;;;;;5.40;2.50;;;20.80;74.20;;;;;;5106594;28;20178;-76
2021/05/01 06:44:56;;;;;;;2.70;2.50;;;20.90;73.80;;;;;;5104847;28;20170;-76
2021/05/01 06:47:29;;;;;;;7.28;2.65;;;21.00;73.70;;;;;;5108347;28;20236;-76
2021/05/01 06:49:55;;;;;;;4.65;2.28;;;21.20;73.50;;;;;;5101903;28;20261;-76
2021/05/01 06:52:23;;;;;;;8.15;2.53;;;21.30;73.20;;;;;;5106218;28;20268;-75
2021/05/01 06:54:52;;;;;;;2.20;1.77;;;21.50;72.70;;;;;;5099854;28;20182;-75
2021/05/01 06:57:25;;;;;;;4.80;2.17;;;21.60;72.10;;;;;;5092981;28;20186;-75
2021/05/01 06:59:57;;;;;;;3.92;2.63;;;21.80;71.00;;;;;;5095850;28;20181;-76
2021/05/01 07:02:32;;;;;;;2.97;2.60;;;21.90;71.30;;;;;;5100243;28;20173;-74
2021/05/01 07:04:59;;;;;;;3.08;2.75;;;22.10;71.70;;;;;;5090136;28;20189;-73
2021/05/01 07:07:27;;;;;;;4.15;2.58;;;22.30;70.50;;;;;;5100255;28;20205;-74
2021/05/01 07:09:53;;;;;;;2.75;2.55;;;22.50;70.00;;;;;;5099772;28;20174;-74
2021/05/01 07:12:20;;;;;;;6.00;2.65;;;22.60;69.10;;;;;;5103402;28;20196;-73
2021/05/01 07:14:47;;;;;;;6.32;2.45;;;22.60;68.70;;;;;;5097633;28;20239;-73
2021/05/01 07:17:14;;;;;;;3.38;2.15;;;22.70;68.60;;;;;;5102032;28;20193;-73
2021/05/01 07:19:41;;;;;;;3.35;2.38;;;22.80;68.70;;;;;;5099759;28;20557;-74
2021/05/01 07:22:07;;;;;;;3.40;3.10;;;22.90;68.80;;;;;;5099699;28;20288;-74
2021/05/01 07:24:34;;;;;;;3.53;3.17;;;23.00;68.80;;;;;;5099050;28;20767;-75
2021/05/01 07:27:01;;;;;;;5.50;3.08;;;23.10;68.90;;;;;;5098217;28;20292;-74
2021/05/01 07:29:37;;;;;;;8.02;3.53;;;23.10;68.20;;;;;;5097081;28;20186;-74
2021/05/01 07:32:05;;;;;;;5.05;2.95;;;23.20;68.60;;;;;;5099794;28;20188;-74
2021/05/01 07:34:32;;;;;;;7.07;3.72;;;23.30;68.80;;;;;;5099953;28;20213;-75
2021/05/01 07:37:05;;;;;;;6.15;2.97;;;23.50;68.40;;;;;;5096276;28;20186;-74
2021/05/01 07:39:32;;;;;;;10.75;2.72;;;23.70;67.60;;;;;;5098204;28;20190;-74
2021/05/01 07:42:03;;;;;;;3.67;3.22;;;23.80;67.10;;;;;;5093175;28;20183;-75
2021/05/01 07:44:31;;;;;;;4.57;2.90;;;23.80;67.10;;;;;;5097075;28;20188;-74
2021/05/01 07:47:01;;;;;;;6.53;3.35;;;23.90;66.50;;;;;;5097304;28;20242;-74
2021/05/01 07:49:28;;;;;;;3.65;2.72;;;24.00;66.60;;;;;;5096891;28;20658;-75
2021/05/01 07:51:55;;;;;;;5.00;2.45;;;24.10;66.30;;;;;;5096544;28;20185;-74
2021/05/01 07:54:22;;;;;;;6.50;2.90;;;24.30;65.80;;;;;;5097348;28;20239;-75
2021/05/01 07:56:48;;;;;;;2.75;2.50;;;24.40;65.90;;;;;;5094552;28;20188;-75
2021/05/01 07:59:14;;;;;;;5.85;2.70;;;24.60;65.10;;;;;;5100479;28;20182;-74
2021/05/01 08:01:58;;;;;;;8.05;3.13;;;24.80;65.50;;;;;;5107805;28;20235;-75
2021/05/01 08:04:24;;;;;;;9.52;2.67;;;25.00;65.30;;;;;;5111340;28;20191;-75
2021/05/01 08:06:50;;;;;;;5.15;2.42;;;25.10;64.80;;;;;;5106526;28;20316;-75
2021/05/01 08:09:15;;;;;;;6.53;2.42;;;25.20;64.10;;;;;;5104152;28;20654;-75
2021/05/01 08:11:41;;;;;;;3.67;2.42;;;25.40;63.90;;;;;;5104889;28;20189;-75
2021/05/01 08:14:07;;;;;;;2.65;2.17;;;25.50;63.60;;;;;;5108259;28;20742;-75
2021/05/01 08:16:34;;;;;;;6.15;1.88;;;25.60;63.50;;;;;;5103033;28;20213;-75
2021/05/01 08:19:02;;;;;;;2.10;2.00;;;25.60;63.50;;;;;;5100604;28;20186;-75
2021/05/01 08:21:31;;;;;;;8.32;3.28;;;25.60;63.30;;;;;;5108881;28;20228;-75
2021/05/01 08:23:56;;;;;;;3.45;2.50;;;25.60;64.00;;;;;;5107719;28;20174;-75
2021/05/01 08:26:22;;;;;;;3.63;2.38;;;25.70;63.60;;;;;;5110772;28;21026;-75
2021/05/01 08:28:48;;;;;;;4.68;2.10;;;25.70;63.20;;;;;;5103841;28;20181;-75
2021/05/01 08:31:14;;;;;;;3.88;2.58;;;25.90;62.80;;;;;;5107139;28;20182;-75
2021/05/01 08:33:39;;;;;;;5.85;2.70;;;26.00;62.90;;;;;;5104987;28;20234;-73
2021/05/01 08:36:05;;;;;;;5.80;2.20;;;26.10;62.50;;;;;;5108602;28;20181;-75
2021/05/01 08:38:36;;;;;;;5.40;2.22;;;26.30;62.20;;;;;;5104583;28;20260;-75
2021/05/01 08:41:06;;;;;;;2.75;2.17;;;26.50;61.70;;;;;;5107898;28;20213;-75
2021/05/01 08:43:32;;;;;;;5.35;2.55;;;26.60;61.30;;;;;;5099252;28;20648;-73
2021/05/01 08:45:59;;;;;;;2.33;2.22;;;26.70;60.80;;;;;;5098360;28;20258;-73
2021/05/01 08:48:26;;;;;;;6.88;2.40;;;26.80;59.90;;;;;;5096206;28;20240;-77
2021/05/01 08:51:02;;;;;;;5.97;2.40;;;26.90;60.30;;;;;;5095137;28;20186;-74
2021/05/01 08:53:29;;;;;;;5.18;2.20;;;27.00;60.30;;;;;;5093513;28;20276;-74
2021/05/01 08:55:54;;;;;;;10.73;2.35;;;27.30;60.40;;;;;;5103650;28;20190;-75
2021/05/01 08:58:20;;;;;;;4.60;2.00;;;27.50;58.80;;;;;;5102356;28;20658;-75
2021/05/01 09:00:47;;;;;;;3.63;2.13;;;27.60;58.60;;;;;;5085911;28;20205;-75
2021/05/01 09:03:14;;;;;;;2.60;2.50;;;27.90;58.40;;;;;;5103212;28;20269;-75
2021/05/01 09:05:41;;;;;;;6.20;2.15;;;28.10;59.10;;;;;;5100989;28;20177;-75
2021/05/01 09:08:09;;;;;;;2.22;2.10;;;28.30;58.30;;;;;;5099328;28;20645;-75
2021/05/01 09:10:43;;;;;;;3.50;2.20;;;28.50;57.40;;;;;;5103722;28;20708;-75
2021/05/01 09:13:21;;;;;;;4.15;1.83;;;28.60;57.70;;;;;;5101154;28;20219;-75
2021/05/01 09:16:00;;;;;;;3.10;2.72;;;28.60;57.20;;;;;;5100862;28;20897;-75
2021/05/01 09:18:29;;;;;;;7.88;1.90;;;28.80;57.70;;;;;;5105779;28;20409;-75
2021/05/01 09:21:10;;;;;;;3.60;2.13;;;28.80;57.90;;;;;;5102379;28;20187;-75
2021/05/01 09:23:37;;;;;;;4.93;2.22;;;28.90;58.20;;;;;;5104637;28;20233;-72
2021/05/01 09:26:02;;;;;;;5.85;2.50;;;28.90;58.50;;;;;;5101113;28;20177;-75
2021/05/01 09:28:39;;;;;;;4.85;2.42;;;28.90;58.60;;;;;;5104849;28;20288;-74
2021/05/01 09:31:17;;;;;;;4.05;2.35;;;28.90;58.30;;;;;;5099540;28;20284;-75
2021/05/01 09:33:47;;;;;;;10.70;2.67;;;28.90;57.70;;;;;;5101869;28;20173;-75
2021/05/01 09:36:20;;;;;;;2.63;2.42;;;29.00;57.60;;;;;;5101377;28;20177;-75
2021/05/01 09:39:14;;;;;;;2.65;2.45;;;29.10;57.90;;;;;;5100867;28;20186;-75
2021/05/01 09:41:42;;;;;;;2.65;1.75;;;29.30;57.20;;;;;;5102237;28;20562;-75
2021/05/01 09:44:10;;;;;;;3.58;2.50;;;29.40;57.40;;;;;;5104323;28;20178;-74
2021/05/01 09:46:39;;;;;;;2.50;2.00;;;29.40;57.00;;;;;;5101784;28;21472;-75
2021/05/01 09:49:15;;;;;;;5.38;2.58;;;29.40;57.50;;;;;;5099437;28;20213;-75
2021/05/01 09:51:53;;;;;;;4.57;2.50;;;29.40;57.00;;;;;;5098849;28;20189;-75
2021/05/01 09:54:20;;;;;;;9.20;2.28;;;29.40;56.80;;;;;;5098817;28;20181;-76
2021/05/01 09:56:47;;;;;;;4.85;2.53;;;29.50;56.60;;;;;;5093858;28;20182;-75
2021/05/01 09:59:14;;;;;;;6.22;2.47;;;29.60;56.70;;;;;;5100269;28;20178;-75
2021/05/01 10:01:40;;;;;;;2.67;2.00;;;29.70;57.20;;;;;;5099281;28;20676;-75
2021/05/01 10:04:15;;;;;;;3.92;2.45;;;30.00;56.80;;;;;;5098796;28;20276;-73
2021/05/01 10:06:46;;;;;;;5.20;2.63;;;30.50;56.60;;;;;;5093757;28;20201;-75
2021/05/01 10:09:23;;;;;;;4.20;2.30;;;30.90;55.50;;;;;;5101735;28;20177;-74
2021/05/01 10:11:52;;;;;;;9.15;2.35;;;31.40;54.70;;;;;;5099087;28;20246;-74
2021/05/01 10:14:59;;;;;;;3.05;2.67;;;31.80;54.20;;;;;;5097489;28;21149;-74
2021/05/01 10:17:28;;;;;;;9.32;2.65;;;32.30;52.40;;;;;;4981610;28;20201;-74
2021/05/01 10:19:55;;;;;;;4.30;2.20;;;33.10;51.90;;;;;;4982662;28;20216;-74
2021/05/01 10:22:27;;;;;;;6.95;2.45;;;33.70;50.90;;;;;;4981973;28;20201;-75
2021/05/01 10:24:55;;;;;;;4.45;1.95;;;34.00;50.40;;;;;;4981295;28;20182;-74
2021/05/01 10:27:21;;;;;;;2.92;2.10;;;34.00;50.00;;;;;;4980894;28;20312;-74
2021/05/01 10:33:10;;;;;;;2.47;2.25;;;34.90;48.20;;;;;;4981525;28;20623;-74
2021/05/01 10:35:37;;;;;;;3.80;1.80;;;35.50;48.80;;;;;;4987401;28;20636;-75
2021/05/01 10:38:04;;;;;;;3.88;2.05;;;36.00;49.00;;;;;;4982393;28;20189;-74
2021/05/01 10:40:51;;;;;;;4.97;2.03;;;36.30;47.90;;;;;;4981702;28;20197;-74
2021/05/01 10:43:25;;;;;;;5.10;2.30;;;37.00;46.60;;;;;;4981504;28;20714;-74
2021/05/01 10:45:54;;;;;;;3.08;2.17;;;37.50;46.40;;;;;;4980637;28;20283;-76
2021/05/01 10:48:21;;;;;;;5.95;1.90;;;37.70;45.80;;;;;;4981000;28;20341;-73
2021/05/01 10:51:09;;;;;;;8.13;2.25;;;38.00;45.50;;;;;;4981610;28;20201;-74
2021/05/01 10:53:36;;;;;;;7.90;2.10;;;38.40;44.20;;;;;;5023241;28;20750;-74
2021/05/01 10:56:03;;;;;;;7.63;2.47;;;38.70;44.00;;;;;;5099212;28;20180;-75
2021/05/01 10:58:36;;;;;;;4.07;1.63;;;38.90;44.60;;;;;;5094028;28;20190;-74
2021/05/01 11:01:04;;;;;;;10.50;2.05;;;38.70;43.70;;;;;;5104037;28;20185;-75
2021/05/01 11:03:30;;;;;;;3.33;1.73;;;38.70;44.10;;;;;;5100855;28;20177;-75
2021/05/01 11:05:59;;;;;;;4.57;2.05;;;38.50;44.30;;;;;;5100659;28;21251;-75
2021/05/01 11:08:37;;;;;;;10.50;2.00;;;38.30;43.00;;;;;;5094505;28;20599;-75
2021/05/01 11:11:09;;;;;;;6.40;1.85;;;38.50;44.60;;;;;;5098474;28;20185;-75
2021/05/01 11:13:36;;;;;;;4.53;2.00;;;38.70;43.30;;;;;;5100494;28;20193;-75
2021/05/01 11:16:08;;;;;;;7.82;2.38;;;38.70;42.70;;;;;;5100620;28;20182;-75
2021/05/01 11:18:37;;;;;;;3.80;2.10;;;38.70;44.10;;;;;;5100091;28;20318;-75
2021/05/01 11:21:11;;;;;;;5.00;2.22;;;38.50;45.00;;;;;;5096934;28;20189;-75
2021/05/01 11:23:37;;;;;;;3.88;2.00;;;38.10;44.70;;;;;;5099365;28;20176;-75
2021/05/01 11:26:08;;;;;;;3.63;1.80;;;37.60;45.50;;;;;;5095460;28;20243;-75
2021/05/01 11:28:37;;;;;;;4.03;2.05;;;37.10;45.40;;;;;;5101637;28;20811;-75
2021/05/01 11:31:03;;;;;;;6.63;2.00;;;36.40;45.20;;;;;;5096611;28;20188;-75
2021/05/01 11:33:32;;;;;;;8.10;2.30;;;35.80;46.70;;;;;;5101051;28;20181;-75
2021/05/01 11:35:58;;;;;;;2.45;1.80;;;35.30;47.10;;;;;;5100195;28;20584;-75
2021/05/01 11:38:27;;;;;;;6.97;2.17;;;35.00;47.50;;;;;;5102143;28;20213;-75
2021/05/01 11:40:56;;;;;;;9.00;2.78;;;34.80;48.00;;;;;;5101479;28;20237;-75
2021/05/01 11:43:30;;;;;;;3.88;2.08;;;34.60;48.90;;;;;;5104140;28;20184;-75
2021/05/01 11:46:10;;;;;;;6.95;2.58;;;35.00;47.40;;;;;;5102212;28;20248;-75
2021/05/01 11:48:45;;;;;;;6.47;1.75;;;35.70;46.20;;;;;;5099049;28;20210;-75
2021/05/01 11:51:16;;;;;;;8.95;2.30;;;36.80;44.40;;;;;;5104837;28;20199;-75
2021/05/01 11:53:51;;;;;;;6.55;1.60;;;37.30;43.90;;;;;;5100600;28;20177;-75
2021/05/01 11:56:35;;;;;;;3.58;1.90;;;37.70;42.50;;;;;;5101944;28;20556;-75
2021/05/01 11:59:12;;;;;;;6.15;1.45;;;37.90;42.50;;;;;;5104726;28;20181;-75
2021/05/01 12:01:49;;;;;;;9.60;1.85;;;37.80;43.00;;;;;;5104923;28;20283;-75
2021/05/01 12:04:18;;;;;;;10.15;1.70;;;37.50;42.90;;;;;;5109756;28;20177;-75
2021/05/01 12:06:52;;;;;;;4.97;1.67;;;37.60;42.50;;;;;;5103290;28;20200;-75
2021/05/01 12:09:23;;;;;;;4.35;1.65;;;38.20;43.20;;;;;;5101894;28;20224;-76
2021/05/01 12:11:50;;;;;;;4.85;1.92;;;39.00;41.40;;;;;;5102319;28;20181;-74
2021/05/01 12:14:18;;;;;;;2.40;1.23;;;39.80;40.60;;;;;;5099806;28;20696;-75
2021/05/01 12:16:45;;;;;;;9.45;1.35;;;40.60;39.50;;;;;;5101108;28;20193;-75
2021/05/01 12:19:25;;;;;;;1.83;1.08;;;41.20;38.50;;;;;;5101961;28;20174;-75
2021/05/01 12:21:53;;;;;;;8.60;1.55;;;42.00;38.30;;;;;;5103829;28;20658;-75
2021/05/01 12:24:31;;;;;;;7.68;1.83;;;42.70;39.00;;;;;;5103142;28;20189;-76
2021/05/01 12:26:58;;;;;;;5.25;1.40;;;43.30;37.50;;;;;;5114522;28;20219;-77
2021/05/01 12:29:30;;;;;;;5.05;1.92;;;43.70;38.90;;;;;;5111836;28;20181;-76
2021/05/01 12:32:06;;;;;;;4.95;1.55;;;44.00;36.30;;;;;;5110719;28;20187;-77
2021/05/01 12:34:49;;;;;;;5.90;1.02;;;44.20;35.40;;;;;;5094903;28;20194;-79
2021/05/01 12:37:17;;;;;;;4.45;1.40;;;44.20;35.10;;;;;;5101669;28;20639;-79
2021/05/01 12:39:49;;;;;;;5.72;1.13;;;44.10;37.50;;;;;;5104718;28;20665;-79
2021/05/01 12:42:21;;;;;;;5.47;1.25;;;43.40;35.60;;;;;;5101977;28;20184;-78
2021/05/01 12:44:48;;;;;;;5.60;0.90;;;42.30;35.80;;;;;;5085261;28;20196;-78
2021/05/01 12:47:35;;;;;;;3.55;1.42;;;41.10;37.50;;;;;;5101153;28;20204;-78
2021/05/01 12:50:24;;;;;;;2.80;1.00;;;39.70;36.00;;;;;;5098230;28;20225;-78
2021/05/01 12:52:51;;;;;;;8.90;1.33;;;38.40;37.20;;;;;;5099957;28;20177;-78
2021/05/01 12:55:18;;;;;;;3.08;1.30;;;37.40;39.60;;;;;;5098820;28;20178;-78
2021/05/01 12:57:44;;;;;;;5.18;1.42;;;36.70;40.70;;;;;;5104116;28;20173;-78